Time;durP1;ratioP1;P1;durP2;ratioP2;P2;SDS_P1;SDS_P2;PMS_P1;PMS_P2;Temp;Humidity;BMP_temperature;BMP_pressure;BME280_temperature;BME280_humidity;BME280_pressure;Samples;Min_cycle;Max_cycle;Signal;HPM_P1;HPM_P2
2023/05/28 00:01:50;;;;;;;9.73;5.63;;;22.90;51.00;;;;;;6128243;28;80744;-58
2023/05/28 00:04:51;;;;;;;10.00;5.95;;;22.90;51.10;;;;;;6128308;28;80276;-59
2023/05/28 00:07:52;;;;;;;10.05;5.65;;;22.90;51.00;;;;;;6116906;28;80211;-60
2023/05/28 00:10:59;;;;;;;9.07;5.43;;;22.80;50.90;;;;;;6139830;28;82951;-59
2023/05/28 00:14:00;;;;;;;10.48;5.65;;;22.90;51.10;;;;;;6110333;28;83052;-59
2023/05/28 00:17:00;;;;;;;11.38;5.65;;;22.90;51.00;;;;;;6104295;28;81395;-58
2023/05/28 00:20:01;;;;;;;10.35;6.07;;;22.80;50.90;;;;;;6122617;28;80407;-66
2023/05/28 00:23:01;;;;;;;12.23;6.07;;;22.80;50.90;;;;;;6128404;28;81640;-66
2023/05/28 00:26:02;;;;;;;12.50;6.35;;;22.80;50.90;;;;;;6127669;28;80708;-69
2023/05/28 00:29:02;;;;;;;9.50;5.65;;;22.80;50.80;;;;;;6115568;28;80458;-69
2023/05/28 00:32:03;;;;;;;7.65;5.22;;;22.80;50.80;;;;;;6128379;28;80774;-70
2023/05/28 00:35:03;;;;;;;8.05;5.07;;;22.80;50.90;;;;;;6127721;28;81458;-70
2023/05/28 00:38:04;;;;;;;11.13;5.90;;;22.80;50.80;;;;;;6136427;28;81956;-69
2023/05/28 00:41:05;;;;;;;12.18;5.05;;;22.80;50.80;;;;;;6133180;28;81048;-67
2023/05/28 00:44:08;;;;;;;10.38;5.45;;;22.80;50.80;;;;;;6122248;28;83102;-66
2023/05/28 00:47:09;;;;;;;9.55;5.43;;;22.80;50.80;;;;;;6104110;28;80404;-67
2023/05/28 00:50:10;;;;;;;11.82;5.43;;;22.70;50.80;;;;;;6119022;28;83177;-66
2023/05/28 00:53:10;;;;;;;9.05;4.60;;;22.70;50.70;;;;;;6104105;28;80228;-66
2023/05/28 00:56:11;;;;;;;12.18;5.10;;;22.70;50.80;;;;;;6122427;28;82868;-66
2023/05/28 00:59:12;;;;;;;10.20;5.53;;;22.70;50.70;;;;;;6104819;28;80673;-59
2023/05/28 01:02:13;;;;;;;8.10;4.30;;;22.70;51.30;;;;;;6135882;28;81878;-59
2023/05/28 01:05:15;;;;;;;10.98;5.55;;;22.70;50.70;;;;;;6105268;28;86832;-62
2023/05/28 01:08:15;;;;;;;7.70;4.97;;;22.70;50.60;;;;;;6104841;28;82312;-59
2023/05/28 01:11:16;;;;;;;7.38;4.70;;;22.70;50.60;;;;;;6107210;28;80747;-59
2023/05/28 01:14:16;;;;;;;8.45;4.78;;;22.70;50.70;;;;;;6105172;28;80389;-58
2023/05/28 01:17:17;;;;;;;7.95;4.88;;;22.70;50.80;;;;;;6106189;28;81111;-66
2023/05/28 01:20:17;;;;;;;9.25;5.28;;;22.70;50.90;;;;;;6104637;28;80850;-66
2023/05/28 01:23:18;;;;;;;8.95;4.78;;;22.70;50.80;;;;;;6117131;28;80337;-66
2023/05/28 01:26:18;;;;;;;8.35;4.97;;;22.70;50.80;;;;;;6107883;28;81125;-64
2023/05/28 01:29:19;;;;;;;11.77;5.90;;;22.70;50.80;;;;;;6120321;28;81779;-65
2023/05/28 01:32:20;;;;;;;8.00;5.25;;;22.70;50.80;;;;;;6142797;28;83827;-66
2023/05/28 01:35:21;;;;;;;7.72;4.43;;;22.60;50.80;;;;;;6116159;28;80850;-64
2023/05/28 01:38:21;;;;;;;8.07;5.05;;;22.60;50.80;;;;;;6117489;28;80888;-65
2023/05/28 01:41:22;;;;;;;9.52;4.60;;;22.60;50.70;;;;;;6122801;28;83175;-65
2023/05/28 01:44:23;;;;;;;7.68;4.53;;;22.60;50.60;;;;;;6120115;28;83881;-63
2023/05/28 01:47:24;;;;;;;10.68;5.25;;;22.60;50.60;;;;;;6106189;28;80438;-66
2023/05/28 01:50:25;;;;;;;8.50;4.88;;;22.60;50.60;;;;;;6126345;28;80640;-64
2023/05/28 01:53:27;;;;;;;10.55;4.90;;;22.60;50.50;;;;;;6125002;28;82336;-65
2023/05/28 01:56:29;;;;;;;7.75;4.90;;;22.60;50.60;;;;;;6113644;28;82552;-63
2023/05/28 01:59:30;;;;;;;9.40;4.07;;;22.60;50.50;;;;;;6138694;28;83447;-62
2023/05/28 02:02:31;;;;;;;7.60;4.80;;;22.60;51.20;;;;;;6125845;28;83023;-63
2023/05/28 02:05:31;;;;;;;6.45;3.90;;;22.60;50.60;;;;;;6137688;28;81517;-63
2023/05/28 02:08:32;;;;;;;9.18;4.72;;;22.60;50.60;;;;;;6129781;28;82023;-63
2023/05/28 02:11:34;;;;;;;9.77;4.60;;;22.60;50.50;;;;;;6129888;28;83053;-70
2023/05/28 02:14:35;;;;;;;10.45;4.72;;;22.60;50.50;;;;;;6142224;28;83500;-70
2023/05/28 02:17:36;;;;;;;6.50;4.43;;;22.60;50.40;;;;;;6120654;28;83372;-68
2023/05/28 02:20:36;;;;;;;7.80;4.90;;;22.60;50.40;;;;;;6130633;28;82420;-67
2023/05/28 02:23:37;;;;;;;8.82;4.90;;;22.50;50.30;;;;;;6135717;28;81288;-67
2023/05/28 02:26:37;;;;;;;7.68;4.35;;;22.60;50.40;;;;;;6134275;28;80573;-67
2023/05/28 02:29:38;;;;;;;11.77;5.13;;;22.50;50.30;;;;;;6117112;28;82554;-66
2023/05/28 02:32:39;;;;;;;9.70;4.72;;;22.50;50.30;;;;;;6138268;28;83233;-67
2023/05/28 02:35:40;;;;;;;6.70;4.45;;;22.50;50.20;;;;;;6122672;28;80249;-66
2023/05/28 02:38:42;;;;;;;6.00;3.53;;;22.50;50.30;;;;;;6129258;28;81482;-68
2023/05/28 02:41:42;;;;;;;6.90;4.40;;;22.50;50.30;;;;;;6122639;28;83201;-68
2023/05/28 02:44:43;;;;;;;6.78;4.07;;;22.50;50.30;;;;;;6142009;28;82017;-65
2023/05/28 02:47:43;;;;;;;7.80;4.70;;;22.50;50.30;;;;;;6136526;28;82597;-65
2023/05/28 02:50:44;;;;;;;6.57;4.65;;;22.50;50.30;;;;;;6127331;28;82997;-67
2023/05/28 02:54:11;;;;;;;6.75;4.43;;;22.50;50.30;;;;;;6107560;28;80354;-64
2023/05/28 02:57:11;;;;;;;8.02;4.60;;;22.50;50.30;;;;;;6127635;28;83260;-65
2023/05/28 03:00:12;;;;;;;6.18;4.35;;;22.50;50.20;;;;;;6110616;28;81011;-62
2023/05/28 03:03:12;;;;;;;7.65;4.40;;;22.50;50.20;;;;;;6122042;28;83376;-64
2023/05/28 03:06:14;;;;;;;8.55;4.35;;;22.50;50.20;;;;;;6121286;28;83179;-58
2023/05/28 03:09:24;;;;;;;7.28;4.32;;;22.50;50.30;;;;;;6124795;28;82145;-59
2023/05/28 03:12:25;;;;;;;6.88;3.60;;;22.40;50.40;;;;;;6120865;28;83435;-59
2023/05/28 03:15:26;;;;;;;5.15;3.75;;;22.50;50.40;;;;;;6122341;28;82909;-61
2023/05/28 03:18:27;;;;;;;6.57;3.85;;;22.40;50.40;;;;;;6127036;28;81327;-58
2023/05/28 03:21:27;;;;;;;8.23;3.95;;;22.40;50.40;;;;;;6120161;28;82233;-60
2023/05/28 03:24:28;;;;;;;7.18;3.40;;;22.40;50.50;;;;;;6122242;28;85075;-59
2023/05/28 03:27:30;;;;;;;8.38;4.03;;;22.40;50.50;;;;;;6151309;28;81814;-59
2023/05/28 03:30:32;;;;;;;7.38;4.22;;;22.40;50.50;;;;;;6121902;28;83202;-60
2023/05/28 03:33:32;;;;;;;6.00;3.58;;;22.40;50.50;;;;;;6120387;28;82237;-60
2023/05/28 03:36:33;;;;;;;6.22;3.67;;;22.40;50.40;;;;;;6120619;28;82535;-59
2023/05/28 03:39:34;;;;;;;8.48;3.78;;;22.40;50.40;;;;;;6132809;28;81817;-60
2023/05/28 03:42:35;;;;;;;7.82;3.97;;;22.50;50.40;;;;;;6125803;28;84184;-68
2023/05/28 03:45:36;;;;;;;6.22;3.90;;;22.50;50.30;;;;;;6125952;28;83574;-68
2023/05/28 03:48:36;;;;;;;9.57;4.15;;;22.50;50.10;;;;;;6130131;28;83086;-67
2023/05/28 03:51:37;;;;;;;9.73;4.00;;;22.40;50.00;;;;;;6115116;28;80296;-67
2023/05/28 03:54:37;;;;;;;6.88;3.90;;;22.40;50.00;;;;;;6133864;28;82337;-71
2023/05/28 03:57:39;;;;;;;7.05;4.15;;;22.40;49.90;;;;;;6140828;28;80460;-68
2023/05/28 04:00:41;;;;;;;8.00;4.60;;;22.40;49.80;;;;;;6124613;28;83156;-62
2023/05/28 04:03:42;;;;;;;8.10;4.43;;;22.40;49.70;;;;;;6120152;28;82903;-63
2023/05/28 04:06:42;;;;;;;6.55;4.60;;;22.40;49.80;;;;;;6145274;28;83180;-62
2023/05/28 04:09:43;;;;;;;6.30;3.85;;;22.30;49.70;;;;;;6126809;28;83606;-63
2023/05/28 04:12:44;;;;;;;7.03;4.05;;;22.40;49.80;;;;;;6122752;28;83149;-64
2023/05/28 04:15:44;;;;;;;6.53;4.00;;;22.40;49.70;;;;;;6122528;28;81996;-63
2023/05/28 04:18:45;;;;;;;9.27;3.97;;;22.40;49.70;;;;;;6115105;28;80922;-69
2023/05/28 04:21:45;;;;;;;5.47;3.40;;;22.40;49.70;;;;;;6122330;28;83435;-63
2023/05/28 04:24:47;;;;;;;7.18;3.95;;;22.40;50.00;;;;;;6142032;28;81160;-65
2023/05/28 04:27:49;;;;;;;4.55;3.35;;;22.40;49.90;;;;;;6125261;28;83397;-70
2023/05/28 04:30:50;;;;;;;14.88;4.07;;;22.40;49.90;;;;;;6112741;28;80915;-72
2023/05/28 04:33:51;;;;;;;8.25;3.53;;;22.40;50.00;;;;;;6119154;28;83657;-73
2023/05/28 04:36:52;;;;;;;8.65;3.75;;;22.50;50.20;;;;;;6105701;28;80488;-71
2023/05/28 04:39:52;;;;;;;7.00;3.47;;;22.50;50.40;;;;;;6118852;28;83135;-63
2023/05/28 04:42:53;;;;;;;7.35;3.80;;;22.50;50.60;;;;;;6103016;28;85152;-67
2023/05/28 04:45:58;;;;;;;7.57;3.58;;;22.60;50.90;;;;;;6115195;28;83356;-70
2023/05/28 04:49:00;;;;;;;4.47;3.05;;;22.60;50.60;;;;;;6105356;28;81291;-72
2023/05/28 04:52:01;;;;;;;4.63;3.05;;;22.70;50.50;;;;;;6137674;28;83160;-70
2023/05/28 04:55:01;;;;;;;7.75;2.92;;;22.60;50.50;;;;;;6107168;28;81481;-67
2023/05/28 04:58:02;;;;;;;5.15;3.22;;;22.60;50.30;;;;;;6126170;28;82910;-66
2023/05/28 05:01:04;;;;;;;7.35;3.30;;;22.70;50.10;;;;;;6145041;28;82087;-68
2023/05/28 05:04:05;;;;;;;7.57;2.92;;;22.70;49.70;;;;;;6124468;28;83166;-68
2023/05/28 05:07:06;;;;;;;6.93;3.42;;;22.70;49.40;;;;;;6122452;28;85019;-67
2023/05/28 05:10:08;;;;;;;7.15;3.60;;;22.70;49.00;;;;;;6125614;28;82189;-69
2023/05/28 05:13:09;;;;;;;8.70;3.63;;;22.70;48.20;;;;;;6124601;28;82600;-72
2023/05/28 05:16:10;;;;;;;4.95;2.75;;;22.70;49.00;;;;;;6118175;28;84098;-63
2023/05/28 05:19:11;;;;;;;6.07;3.50;;;22.70;48.60;;;;;;6121418;28;83520;-61
2023/05/28 05:22:11;;;;;;;9.40;3.15;;;22.80;48.10;;;;;;6126395;28;82129;-61
2023/05/28 05:25:12;;;;;;;5.97;3.22;;;22.70;47.60;;;;;;6134931;28;83261;-61
2023/05/28 05:28:16;;;;;;;5.45;2.80;;;22.70;47.40;;;;;;6110923;28;82934;-63
2023/05/28 05:31:17;;;;;;;10.98;3.20;;;22.70;47.50;;;;;;6116204;28;83671;-63
2023/05/28 05:34:18;;;;;;;9.55;2.80;;;22.70;47.60;;;;;;6125694;28;83147;-64
2023/05/28 05:37:54;;;;;;;8.98;3.60;;;22.70;47.60;;;;;;6009924;28;80862;-69
2023/05/28 05:41:02;;;;;;;7.18;3.33;;;22.70;47.20;;;;;;6081678;28;83684;-66
2023/05/28 05:44:21;;;;;;;9.65;3.75;;;22.80;47.70;;;;;;6081516;28;84840;-69
2023/05/28 05:47:22;;;;;;;14.63;6.90;;;22.80;47.70;;;;;;6090610;28;83400;-69
2023/05/28 05:50:23;;;;;;;11.77;4.95;;;22.80;47.10;;;;;;6089648;28;81568;-69
2023/05/28 05:53:24;;;;;;;14.57;6.88;;;22.80;47.70;;;;;;6091435;28;83521;-67
2023/05/28 05:56:25;;;;;;;16.65;7.32;;;22.80;48.30;;;;;;6091363;28;83613;-69
2023/05/28 05:59:26;;;;;;;15.40;6.40;;;22.80;48.60;;;;;;6090237;28;82485;-67
2023/05/28 06:02:27;;;;;;;15.88;6.55;;;22.80;48.60;;;;;;6090915;28;81642;-68
2023/05/28 06:05:31;;;;;;;10.02;5.53;;;22.80;48.40;;;;;;6093049;28;83755;-68
2023/05/28 06:08:53;;;;;;;8.85;5.03;;;22.90;48.10;;;;;;6088835;28;85584;-70
2023/05/28 06:12:19;;;;;;;10.00;4.80;;;22.90;48.20;;;;;;6087441;28;83427;-70
2023/05/28 06:15:19;;;;;;;8.93;4.43;;;23.00;48.20;;;;;;6093505;28;88365;-66
2023/05/28 06:18:21;;;;;;;7.90;4.65;;;23.00;48.30;;;;;;6100298;28;80559;-67
2023/05/28 06:21:24;;;;;;;11.82;5.13;;;23.00;49.10;;;;;;6098820;28;83220;-69
2023/05/28 06:24:24;;;;;;;8.40;4.57;;;23.00;48.50;;;;;;6090385;28;81533;-74
2023/05/28 06:27:25;;;;;;;11.00;5.05;;;23.00;48.70;;;;;;6094729;28;83156;-72
2023/05/28 06:30:26;;;;;;;8.57;4.88;;;23.10;48.80;;;;;;6089417;28;83153;-69
2023/05/28 06:33:27;;;;;;;11.23;5.10;;;23.00;48.90;;;;;;6101046;28;86805;-71
2023/05/28 06:36:28;;;;;;;7.00;3.92;;;23.10;49.10;;;;;;6098818;28;82401;-70
2023/05/28 06:39:28;;;;;;;10.63;4.70;;;23.10;49.10;;;;;;6084374;28;82853;-67
2023/05/28 06:42:29;;;;;;;11.85;4.38;;;23.10;49.20;;;;;;6084078;28;83135;-68
2023/05/28 06:45:41;;;;;;;9.95;4.72;;;23.10;49.30;;;;;;6117058;28;85020;-70
2023/05/28 06:48:44;;;;;;;8.25;4.15;;;23.20;49.40;;;;;;6123536;28;80490;-61
2023/05/28 06:51:45;;;;;;;9.23;4.70;;;23.10;49.50;;;;;;6083267;28;84601;-62
2023/05/28 06:54:45;;;;;;;11.45;4.70;;;23.20;49.30;;;;;;6124135;28;83439;-60
2023/05/28 06:57:46;;;;;;;9.90;4.75;;;23.20;49.20;;;;;;6123771;28;82817;-64
2023/05/28 07:01:04;;;;;;;11.55;4.20;;;23.20;49.10;;;;;;6124252;28;81558;-61
2023/05/28 07:04:20;;;;;;;9.45;4.80;;;23.30;49.00;;;;;;6112344;28;83947;-57
2023/05/28 07:07:22;;;;;;;9.90;4.40;;;23.30;49.00;;;;;;6111683;28;83330;-58
2023/05/28 07:10:23;;;;;;;9.63;4.13;;;23.30;49.20;;;;;;6114489;28;83391;-60
2023/05/28 07:13:23;;;;;;;8.93;4.72;;;23.30;49.20;;;;;;6115729;28;82073;-58
2023/05/28 07:16:24;;;;;;;10.32;4.90;;;23.30;49.20;;;;;;6114728;28;84564;-62
2023/05/28 07:19:25;;;;;;;11.05;5.38;;;23.30;49.30;;;;;;6085839;28;81505;-62
2023/05/28 07:22:26;;;;;;;13.45;6.35;;;23.30;49.60;;;;;;6109992;28;86198;-62
2023/05/28 07:25:27;;;;;;;16.63;6.82;;;23.30;49.50;;;;;;6106984;28;84164;-61
2023/05/28 07:31:53;;;;;;;17.60;7.67;;;23.30;49.90;;;;;;6106569;28;85204;-53
2023/05/28 07:34:57;;;;;;;19.05;7.72;;;23.40;50.10;;;;;;6118895;28;80623;-54
2023/05/28 07:37:58;;;;;;;25.70;10.15;;;23.40;50.10;;;;;;6123982;28;83167;-52
2023/05/28 07:40:58;;;;;;;29.50;11.35;;;23.40;50.20;;;;;;6123836;28;87501;-55
2023/05/28 07:44:07;;;;;;;29.27;12.27;;;23.50;50.40;;;;;;6123924;28;86746;-56
2023/05/28 07:47:08;;;;;;;44.42;13.93;;;23.50;50.40;;;;;;6132969;28;85615;-59
2023/05/28 07:50:28;;;;;;;44.08;16.63;;;23.50;50.30;;;;;;6119081;28;87278;-59
2023/05/28 07:53:35;;;;;;;43.20;17.63;;;23.50;50.20;;;;;;6116971;28;84396;-58
2023/05/28 07:56:38;;;;;;;42.08;17.75;;;23.50;50.30;;;;;;6139978;28;85737;-59
2023/05/28 07:59:41;;;;;;;43.67;16.48;;;23.50;50.10;;;;;;6115776;28;85389;-58
2023/05/28 08:02:43;;;;;;;45.72;16.17;;;23.50;50.30;;;;;;6135658;28;85959;-58
2023/05/28 08:05:45;;;;;;;33.08;13.55;;;23.50;50.20;;;;;;6135977;28;83113;-56
2023/05/28 08:08:45;;;;;;;35.70;14.40;;;23.50;50.10;;;;;;6105281;28;83475;-54
2023/05/28 08:11:46;;;;;;;33.00;13.93;;;23.50;50.00;;;;;;6140305;28;86293;-56
2023/05/28 08:14:48;;;;;;;27.33;12.02;;;23.50;49.60;;;;;;6138303;28;85613;-53
2023/05/28 08:17:48;;;;;;;22.02;9.95;;;23.50;49.20;;;;;;6123829;28;86048;-57
2023/05/28 08:20:51;;;;;;;21.52;8.45;;;23.50;48.80;;;;;;6140567;28;86328;-48
2023/05/28 08:23:57;;;;;;;18.73;7.57;;;23.30;48.40;;;;;;6142724;28;83492;-62
2023/05/28 08:26:57;;;;;;;20.80;8.18;;;23.30;48.00;;;;;;6142341;28;81675;-64
2023/05/28 08:30:00;;;;;;;13.90;6.35;;;23.40;48.80;;;;;;6139495;28;83208;-58
2023/05/28 08:33:00;;;;;;;21.52;6.70;;;23.40;48.00;;;;;;6127939;28;83269;-59
2023/05/28 08:36:02;;;;;;;25.48;7.68;;;23.40;48.20;;;;;;6151115;28;83146;-58
2023/05/28 08:39:03;;;;;;;18.98;6.60;;;23.40;48.20;;;;;;6149500;28;83281;-58
2023/05/28 08:42:05;;;;;;;16.42;6.63;;;23.50;48.00;;;;;;6148522;28;82989;-59
2023/05/28 08:45:06;;;;;;;19.17;6.35;;;23.50;48.30;;;;;;6161598;28;83429;-60
2023/05/28 08:48:07;;;;;;;16.20;6.18;;;23.50;48.30;;;;;;6164706;28;83655;-59
2023/05/28 08:51:08;;;;;;;14.90;6.82;;;23.50;48.90;;;;;;6148242;28;80249;-59
2023/05/28 08:54:11;;;;;;;18.02;6.22;;;23.50;48.70;;;;;;6147717;28;83729;-58
2023/05/28 08:57:12;;;;;;;12.30;5.78;;;23.50;48.40;;;;;;6161817;28;83238;-57
2023/05/28 09:00:21;;;;;;;18.48;6.32;;;23.50;48.20;;;;;;6150918;28;82980;-57
2023/05/28 09:03:48;;;;;;;;;;;23.50;48.20;;;;;;6150402;28;80328;-58
2023/05/28 09:07:02;;;;;;;14.30;5.85;;;23.60;48.50;;;;;;6157782;28;82092;-58
2023/05/28 09:10:11;;;;;;;11.35;5.38;;;23.60;48.50;;;;;;6150388;28;80337;-57
2023/05/28 09:13:14;;;;;;;19.70;5.95;;;23.60;48.50;;;;;;6149793;28;80526;-57
2023/05/28 09:16:17;;;;;;;12.48;5.43;;;23.60;48.60;;;;;;6156999;28;83953;-57
2023/05/28 09:19:18;;;;;;;18.33;5.82;;;23.60;48.50;;;;;;6167854;28;83331;-61
2023/05/28 09:22:19;;;;;;;11.45;5.05;;;23.60;48.50;;;;;;6162076;28;83712;-60
2023/05/28 09:25:42;;;;;;;14.98;5.30;;;23.60;48.30;;;;;;6160813;28;83087;-60
2023/05/28 09:28:52;;;;;;;13.00;4.70;;;23.60;48.50;;;;;;6167334;28;83151;-62
2023/05/28 09:31:52;;;;;;;12.32;5.47;;;23.70;48.50;;;;;;6156283;28;80391;-62
2023/05/28 09:34:53;;;;;;;10.85;4.47;;;23.70;48.20;;;;;;6156669;28;80339;-62
2023/05/28 09:37:53;;;;;;;10.20;5.35;;;23.70;47.80;;;;;;6156171;28;80538;-61
2023/05/28 09:40:57;;;;;;;12.63;4.38;;;23.70;46.50;;;;;;6154344;28;80326;-61
2023/05/28 09:43:58;;;;;;;8.65;3.72;;;23.70;46.10;;;;;;6155161;28;81097;-62
2023/05/28 09:46:59;;;;;;;5.85;3.03;;;23.60;45.90;;;;;;6155581;28;80694;-64
2023/05/28 09:50:00;;;;;;;7.72;3.75;;;23.60;45.50;;;;;;6154917;28;80383;-62
2023/05/28 09:53:01;;;;;;;8.35;3.10;;;23.60;44.70;;;;;;6156294;28;81246;-61
2023/05/28 09:56:02;;;;;;;6.32;2.95;;;23.50;43.90;;;;;;6156553;28;80489;-59
2023/05/28 09:59:02;;;;;;;7.13;2.70;;;23.50;43.40;;;;;;6155019;28;80441;-59
2023/05/28 10:02:03;;;;;;;7.32;2.70;;;23.50;43.20;;;;;;6155297;28;80619;-60
2023/05/28 10:05:04;;;;;;;6.28;3.60;;;23.40;43.50;;;;;;6153922;28;80368;-60
2023/05/28 10:08:04;;;;;;;4.55;2.72;;;23.50;43.40;;;;;;6154189;28;80779;-60
2023/05/28 10:11:05;;;;;;;5.97;2.53;;;23.50;43.10;;;;;;6155337;28;80653;-59
2023/05/28 10:14:05;;;;;;;5.63;3.13;;;23.50;44.10;;;;;;6155212;28;80595;-58
2023/05/28 10:17:06;;;;;;;6.93;3.10;;;23.60;44.00;;;;;;6155677;28;81305;-58
2023/05/28 10:20:10;;;;;;;9.18;3.20;;;23.60;43.70;;;;;;6154454;28;80522;-57
2023/05/28 10:23:10;;;;;;;4.75;2.95;;;23.60;43.80;;;;;;6155460;28;80400;-57
2023/05/28 10:26:11;;;;;;;7.65;3.25;;;23.60;43.60;;;;;;6153044;28;81025;-57
2023/05/28 10:29:11;;;;;;;7.80;2.65;;;23.60;43.50;;;;;;6151391;28;80585;-57
2023/05/28 10:32:12;;;;;;;3.67;2.58;;;23.70;44.20;;;;;;6153877;28;80336;-62
2023/05/28 10:35:12;;;;;;;3.88;2.70;;;23.70;44.00;;;;;;6155007;28;80268;-61
2023/05/28 10:38:13;;;;;;;5.50;2.53;;;23.70;43.70;;;;;;6154788;28;81829;-61
2023/05/28 10:41:13;;;;;;;4.00;2.63;;;23.70;44.00;;;;;;6153659;28;80931;-61
2023/05/28 10:44:14;;;;;;;5.70;2.67;;;23.70;44.00;;;;;;6154235;28;80551;-60
2023/05/28 10:47:16;;;;;;;6.72;3.20;;;23.80;44.30;;;;;;6154903;28;85343;-61
2023/05/28 10:50:17;;;;;;;7.05;3.00;;;23.80;44.00;;;;;;6154989;28;80526;-64
2023/05/28 10:53:18;;;;;;;3.13;2.38;;;23.80;43.60;;;;;;6153717;28;80218;-64
2023/05/28 10:56:18;;;;;;;6.97;2.40;;;23.70;43.90;;;;;;6153965;28;80670;-62
2023/05/28 10:59:19;;;;;;;5.05;2.88;;;23.80;44.10;;;;;;6155193;28;80476;-63
2023/05/28 11:02:20;;;;;;;5.82;3.05;;;23.80;44.20;;;;;;6153873;28;82418;-62
2023/05/28 11:05:20;;;;;;;5.07;2.55;;;23.80;44.40;;;;;;6154503;28;80798;-63
2023/05/28 11:08:21;;;;;;;3.97;2.40;;;23.90;44.50;;;;;;6154603;28;82521;-62
2023/05/28 11:11:22;;;;;;;6.03;2.55;;;23.90;44.50;;;;;;6154280;28;80228;-62
2023/05/28 11:14:22;;;;;;;5.63;2.28;;;23.90;44.90;;;;;;6152016;28;81310;-61
2023/05/28 11:17:23;;;;;;;3.53;2.35;;;23.90;44.80;;;;;;6153576;28;81083;-62
2023/05/28 11:20:30;;;;;;;6.13;3.03;;;23.90;44.40;;;;;;6154851;28;80666;-61
2023/05/28 11:23:30;;;;;;;4.35;2.20;;;23.90;44.60;;;;;;6152055;28;82494;-61
2023/05/28 11:26:31;;;;;;;2.78;2.15;;;24.00;44.90;;;;;;6154321;28;81719;-57
2023/05/28 11:29:32;;;;;;;4.43;2.17;;;24.00;44.90;;;;;;6151670;28;80446;-56
2023/05/28 11:32:33;;;;;;;3.83;2.70;;;24.00;45.00;;;;;;6153276;28;82495;-57
2023/05/28 11:35:33;;;;;;;4.43;2.35;;;24.00;45.30;;;;;;6153042;28;80677;-57
2023/05/28 11:38:34;;;;;;;3.30;2.15;;;24.00;45.40;;;;;;6152032;28;81531;-56
2023/05/28 11:41:34;;;;;;;4.20;2.33;;;24.00;45.00;;;;;;6153525;28;83036;-58
2023/05/28 11:44:35;;;;;;;3.65;2.28;;;24.00;45.10;;;;;;6152648;28;80428;-62
2023/05/28 11:47:35;;;;;;;3.58;1.80;;;24.10;45.00;;;;;;6152091;28;81247;-65
2023/05/28 11:50:36;;;;;;;10.75;3.10;;;24.10;45.30;;;;;;6153173;28;80288;-66
2023/05/28 11:53:36;;;;;;;8.00;2.40;;;24.10;45.90;;;;;;6153124;28;80240;-62
2023/05/28 11:56:37;;;;;;;6.50;2.15;;;24.10;46.00;;;;;;6153590;28;80729;-58
2023/05/28 11:59:38;;;;;;;6.85;2.47;;;24.10;45.90;;;;;;6146667;28;81507;-64
2023/05/28 12:02:39;;;;;;;5.85;2.45;;;24.10;45.70;;;;;;6148906;28;80786;-57
2023/05/28 12:05:39;;;;;;;9.23;2.83;;;24.20;45.30;;;;;;6144939;28;80807;-59
2023/05/28 12:08:40;;;;;;;6.50;2.45;;;24.10;44.80;;;;;;6148822;28;81081;-56
2023/05/28 12:11:40;;;;;;;8.50;3.10;;;24.20;44.30;;;;;;6148001;28;80648;-54
2023/05/28 12:14:41;;;;;;;5.30;2.20;;;24.10;43.60;;;;;;6145385;28;82312;-52
2023/05/28 12:17:41;;;;;;;5.43;2.53;;;24.10;43.50;;;;;;6148305;28;82837;-53
2023/05/28 12:20:42;;;;;;;6.93;3.35;;;24.20;43.80;;;;;;6146672;28;81101;-49
2023/05/28 12:23:43;;;;;;;9.73;3.35;;;24.20;43.70;;;;;;6145092;28;82418;-55
2023/05/28 12:26:43;;;;;;;8.73;3.78;;;24.20;43.70;;;;;;6143219;28;81818;-53
2023/05/28 12:29:44;;;;;;;9.50;2.80;;;24.20;43.60;;;;;;6143278;28;81159;-55
2023/05/28 12:32:45;;;;;;;7.05;3.22;;;24.10;42.10;;;;;;6149159;28;80553;-56
2023/05/28 12:35:45;;;;;;;9.77;3.08;;;24.00;42.50;;;;;;6146953;28;81062;-58
2023/05/28 12:38:46;;;;;;;7.32;2.85;;;24.00;42.40;;;;;;6150457;28;81566;-52
2023/05/28 12:41:47;;;;;;;9.50;3.17;;;23.90;42.40;;;;;;6151820;28;81398;-57
2023/05/28 12:44:48;;;;;;;8.27;2.92;;;23.90;42.60;;;;;;6152211;28;80575;-56
2023/05/28 12:47:49;;;;;;;6.68;2.58;;;23.90;42.00;;;;;;6151135;28;83126;-53
2023/05/28 12:50:49;;;;;;;4.88;2.80;;;23.90;42.20;;;;;;6149980;28;84020;-55
2023/05/28 12:53:50;;;;;;;5.22;2.50;;;23.90;42.10;;;;;;6150299;28;80888;-54
2023/05/28 12:56:50;;;;;;;5.30;2.38;;;23.80;42.00;;;;;;6141965;28;84545;-53
2023/05/28 12:59:51;;;;;;;6.78;3.25;;;23.80;42.00;;;;;;6145540;28;81750;-60
2023/05/28 13:02:51;;;;;;;6.40;2.70;;;23.90;42.90;;;;;;6150644;28;80600;-58
2023/05/28 13:05:52;;;;;;;11.13;3.50;;;23.90;42.90;;;;;;6149882;28;81753;-58
2023/05/28 13:08:52;;;;;;;5.20;3.33;;;23.90;43.10;;;;;;6148403;28;80591;-58
2023/05/28 13:11:53;;;;;;;6.30;2.70;;;23.90;42.90;;;;;;6143639;28;80611;-59
2023/05/28 13:14:53;;;;;;;9.18;3.55;;;24.00;42.90;;;;;;6146994;28;80572;-59
2023/05/28 13:17:54;;;;;;;6.68;2.60;;;23.90;43.00;;;;;;6149678;28;80615;-59
2023/05/28 13:20:54;;;;;;;6.55;2.30;;;24.00;42.80;;;;;;6147958;28;81690;-59
2023/05/28 13:23:55;;;;;;;7.05;2.85;;;24.00;42.70;;;;;;6147934;28;81782;-51
2023/05/28 13:26:55;;;;;;;14.43;2.00;;;24.00;42.80;;;;;;6150509;28;80603;-51
2023/05/28 13:29:56;;;;;;;7.85;2.20;;;24.00;41.90;;;;;;6143726;28;80539;-55
2023/05/28 13:32:57;;;;;;;6.30;2.50;;;23.90;41.30;;;;;;6150672;28;81350;-55
2023/05/28 13:35:57;;;;;;;4.32;2.22;;;23.90;41.30;;;;;;6146045;28;80970;-66
2023/05/28 13:38:58;;;;;;;5.22;2.22;;;23.90;41.30;;;;;;6145616;28;80357;-68
2023/05/28 13:41:59;;;;;;;2.65;1.85;;;23.90;41.10;;;;;;6150442;28;80854;-61
2023/05/28 13:44:59;;;;;;;4.80;1.73;;;23.80;41.10;;;;;;6150621;28;80298;-66
2023/05/28 13:48:00;;;;;;;8.00;2.53;;;23.90;41.30;;;;;;6148820;28;85778;-68
2023/05/28 13:51:01;;;;;;;7.55;1.80;;;23.90;41.80;;;;;;6149196;28;80326;-64
2023/05/28 13:54:01;;;;;;;4.90;2.28;;;23.90;41.00;;;;;;6147647;28;81178;-58
2023/05/28 13:57:02;;;;;;;7.93;2.47;;;23.80;40.50;;;;;;6149570;28;80130;-58
2023/05/28 14:00:06;;;;;;;3.05;1.90;;;23.80;40.30;;;;;;6144898;28;80584;-59
2023/05/28 14:03:13;;;;;;;7.65;2.17;;;23.70;41.20;;;;;;6149902;28;81266;-59
2023/05/28 14:06:14;;;;;;;7.45;2.05;;;23.80;41.00;;;;;;6152224;28;80525;-59
2023/05/28 14:09:14;;;;;;;6.50;1.88;;;23.80;41.50;;;;;;6151026;28;81726;-64
2023/05/28 14:12:15;;;;;;;6.07;2.00;;;23.80;41.80;;;;;;6152579;28;81003;-65
2023/05/28 14:15:15;;;;;;;8.85;2.47;;;23.80;41.60;;;;;;6153557;28;81872;-63
2023/05/28 14:18:16;;;;;;;4.28;2.13;;;23.80;41.90;;;;;;6152507;28;80565;-64
2023/05/28 14:21:16;;;;;;;5.32;2.20;;;23.80;41.80;;;;;;6148639;28;81403;-64
2023/05/28 14:24:17;;;;;;;3.83;1.67;;;23.80;41.40;;;;;;6148492;28;80422;-64
2023/05/28 14:27:17;;;;;;;5.68;2.10;;;23.80;41.50;;;;;;6151733;28;80637;-63
2023/05/28 14:30:18;;;;;;;3.58;2.10;;;23.70;41.50;;;;;;6150784;28;80562;-58
2023/05/28 14:33:18;;;;;;;6.18;2.10;;;23.70;41.30;;;;;;6153058;28;81668;-59
2023/05/28 14:36:19;;;;;;;5.53;2.30;;;23.70;40.80;;;;;;6154110;28;80982;-59
2023/05/28 14:39:20;;;;;;;7.05;1.95;;;23.60;40.90;;;;;;6151734;28;81247;-58
2023/05/28 14:42:20;;;;;;;6.25;2.30;;;23.60;41.10;;;;;;6154793;28;80317;-58
2023/05/28 14:45:21;;;;;;;2.88;1.77;;;23.50;41.20;;;;;;6152523;28;80406;-59
2023/05/28 14:48:21;;;;;;;7.53;2.10;;;23.60;41.40;;;;;;6154855;28;81987;-59
2023/05/28 14:51:22;;;;;;;4.47;2.30;;;23.60;41.50;;;;;;6155105;28;80367;-59
2023/05/28 14:54:23;;;;;;;4.50;1.65;;;23.60;41.80;;;;;;6153967;28;80600;-59
2023/05/28 14:57:23;;;;;;;3.15;2.10;;;23.50;41.60;;;;;;6153408;28;80883;-57
2023/05/28 15:00:24;;;;;;;5.97;2.20;;;23.50;41.30;;;;;;6153400;28;81066;-58
2023/05/28 15:03:24;;;;;;;3.35;2.38;;;23.50;41.50;;;;;;6152994;28;80628;-58
2023/05/28 15:06:25;;;;;;;7.53;3.40;;;23.50;42.20;;;;;;6154558;28;80669;-59
2023/05/28 15:09:25;;;;;;;5.72;2.40;;;23.50;42.50;;;;;;6153631;28;80575;-58
2023/05/28 15:12:26;;;;;;;6.13;2.58;;;23.50;42.10;;;;;;6153173;28;80263;-58
2023/05/28 15:15:26;;;;;;;11.25;2.70;;;23.40;41.70;;;;;;6152971;28;80752;-56
2023/05/28 15:18:27;;;;;;;6.57;2.60;;;23.40;41.50;;;;;;6153421;28;80989;-59
2023/05/28 15:21:27;;;;;;;3.72;2.45;;;23.40;41.90;;;;;;6154099;28;80888;-55
2023/05/28 15:24:28;;;;;;;8.25;3.42;;;23.40;42.10;;;;;;6148542;28;81307;-66
2023/05/28 15:27:28;;;;;;;7.53;3.22;;;23.40;42.80;;;;;;6147358;28;80688;-64
2023/05/28 15:30:29;;;;;;;7.68;2.53;;;23.50;43.30;;;;;;6144885;28;82018;-65
2023/05/28 15:33:30;;;;;;;7.55;2.45;;;23.60;43.80;;;;;;6150032;28;80303;-69
2023/05/28 15:36:31;;;;;;;7.90;2.72;;;23.60;43.60;;;;;;6152116;28;80660;-70
2023/05/28 15:39:31;;;;;;;4.22;2.35;;;23.70;43.80;;;;;;6152847;28;81856;-71
2023/05/28 15:42:32;;;;;;;4.15;2.33;;;23.70;43.90;;;;;;6155763;28;80295;-71
2023/05/28 15:45:33;;;;;;;9.00;2.90;;;23.70;43.60;;;;;;6152320;28;84333;-70